createdAt,value
2018-01-06T00:02:05.511Z,99805.77
2018-01-06T00:04:31.476Z,99801.45
2018-01-06T00:06:57.443Z,99806.00
2018-01-06T00:09:23.421Z,99806.56
2018-01-06T00:11:49.426Z,99804.69
2018-01-06T00:39:29.756Z,99804.28
2018-01-06T00:41:55.755Z,99803.37
2018-01-06T00:44:21.741Z,99805.91
2018-01-06T00:46:47.677Z,99810.98
2018-01-06T00:49:13.653Z,99812.20
2018-01-06T00:51:39.639Z,99812.20
2018-01-06T00:54:05.591Z,99813.82
2018-01-06T00:56:31.542Z,99814.88
2018-01-06T00:58:57.517Z,99806.77
2018-01-06T01:01:23.527Z,99811.23
2018-01-06T01:03:49.498Z,99813.47
2018-01-06T01:06:15.533Z,99808.73
2018-01-06T01:08:41.526Z,99814.07
2018-01-06T01:11:07.494Z,99816.77
2018-01-06T01:13:33.542Z,99820.41
2018-01-06T01:15:59.511Z,99820.53
2018-01-06T01:18:25.504Z,99821.95
2018-01-06T01:20:51.528Z,99821.19
2018-01-06T01:23:17.542Z,99822.76
2018-01-06T01:25:43.483Z,99830.02
2018-01-06T01:28:09.494Z,99831.09
2018-01-06T01:30:35.473Z,99829.81
2018-01-06T01:33:01.435Z,99830.97
2018-01-06T01:35:27.403Z,99841.02
2018-01-06T01:37:53.373Z,99844.08
2018-01-06T01:40:19.324Z,99847.28
2018-01-06T01:42:45.297Z,99851.36
2018-01-06T01:45:11.264Z,99850.77
2018-01-06T01:47:37.221Z,99851.92
2018-01-06T01:50:03.188Z,99851.92
2018-01-06T01:52:29.185Z,99859.19
2018-01-06T01:54:55.128Z,99859.69
2018-01-06T01:57:21.082Z,99868.42
2018-01-06T01:59:47.054Z,99863.08
2018-01-06T02:02:13.063Z,99868.42
2018-01-06T02:04:39.085Z,99859.91
2018-01-06T02:07:05.108Z,99857.27
2018-01-06T02:09:31.058Z,99860.09
2018-01-06T02:11:57.001Z,99860.38
2018-01-06T02:14:22.967Z,99858.27
2018-01-06T02:16:48.926Z,99866.85
2018-01-06T02:19:14.919Z,99862.98
2018-01-06T02:21:40.917Z,99867.19
2018-01-06T02:24:06.880Z,99871.06
2018-01-06T02:26:32.875Z,99874.36
2018-01-06T02:28:58.841Z,99878.66
2018-01-06T02:31:24.812Z,99886.25
2018-01-06T02:33:50.805Z,99878.50
2018-01-06T02:36:16.782Z,99883.45
2018-01-06T02:38:42.770Z,99879.09
2018-01-06T02:41:08.723Z,99879.59
2018-01-06T02:43:34.675Z,99879.84
2018-01-06T02:46:00.642Z,99884.68
2018-01-06T02:48:26.609Z,99887.76
2018-01-06T02:50:52.591Z,99895.72
2018-01-06T02:53:18.580Z,99899.52
2018-01-06T02:55:44.529Z,99903.32
2018-01-06T02:58:10.486Z,99908.19
2018-01-06T03:00:36.445Z,99905.14
2018-01-06T03:03:02.400Z,99909.25
2018-01-06T03:05:28.432Z,99917.91
2018-01-06T03:07:54.407Z,99917.52
2018-01-06T03:10:20.363Z,99918.59
2018-01-06T03:12:46.322Z,99917.92
2018-01-06T03:15:12.316Z,99911.06
2018-01-06T03:17:38.287Z,99906.70
2018-01-06T03:20:04.253Z,99909.10
2018-01-06T03:22:30.237Z,99908.70
2018-01-06T03:24:56.194Z,99908.63
2018-01-06T03:27:22.185Z,99907.46
2018-01-06T03:29:48.131Z,99900.53
2018-01-06T03:32:14.129Z,99906.78
2018-01-06T03:34:40.093Z,99904.06
2018-01-06T03:37:06.091Z,99901.69
2018-01-06T03:39:32.051Z,99901.77
2018-01-06T03:41:58.033Z,99902.58
2018-01-06T03:46:55.312Z,99905.80
2018-01-06T03:49:21.305Z,99903.00
2018-01-06T03:51:47.277Z,99902.91
2018-01-06T03:54:13.223Z,99901.02
2018-01-06T03:56:39.182Z,99901.68
2018-01-06T03:59:05.136Z,99902.26
2018-01-06T04:01:31.146Z,99898.48
2018-01-06T04:03:57.109Z,99894.42
2018-01-06T04:06:23.092Z,99894.04
2018-01-06T04:08:49.064Z,99890.00
2018-01-06T04:11:15.043Z,99895.52
2018-01-06T04:13:40.989Z,99889.66
2018-01-06T04:16:06.947Z,99899.72
2018-01-06T04:18:32.926Z,99902.17
2018-01-06T04:20:58.916Z,99903.18
2018-01-06T04:23:24.963Z,99908.95
2018-01-06T04:25:50.913Z,99911.08
2018-01-06T04:28:17.275Z,99919.88
2018-01-06T04:30:43.250Z,99917.41
2018-01-06T04:33:09.229Z,99926.17
2018-01-06T04:35:35.177Z,99936.41
2018-01-06T04:38:01.163Z,99937.22
2018-01-06T04:40:27.158Z,99932.68
2018-01-06T04:42:53.309Z,99935.16
2018-01-06T04:45:19.287Z,99941.59
2018-01-06T04:47:45.245Z,99945.20
2018-01-06T04:50:11.208Z,99948.67
2018-01-06T04:52:37.192Z,99953.38
2018-01-06T04:55:03.174Z,99958.46
2018-01-06T04:57:29.162Z,99950.14
2018-01-06T04:59:55.106Z,99957.23
2018-01-06T05:02:21.090Z,99958.72
2018-01-06T05:04:47.060Z,99959.86
2018-01-06T05:07:13.037Z,99948.49
2018-01-06T05:09:38.994Z,99945.17
2018-01-06T05:12:04.954Z,99952.19
2018-01-06T05:14:30.966Z,99961.02
2018-01-06T05:16:56.949Z,99969.13
2018-01-06T05:19:22.895Z,99976.13
2018-01-06T05:21:48.859Z,99973.88
2018-01-06T05:24:14.818Z,99967.53
2018-01-06T05:26:40.800Z,99972.16
2018-01-06T05:29:06.778Z,99976.60
2018-01-06T05:31:32.770Z,99972.15
2018-01-06T05:33:58.737Z,99969.04
2018-01-06T05:36:24.723Z,99965.81
2018-01-06T05:38:50.724Z,99973.15
2018-01-06T05:41:16.706Z,99976.91
2018-01-06T05:43:43.770Z,99978.15
2018-01-06T05:46:09.727Z,99964.75
2018-01-06T05:48:35.786Z,99952.52
2018-01-06T05:51:01.751Z,99948.88
2018-01-06T05:53:27.717Z,99957.89
2018-01-06T05:55:53.662Z,99956.67
2018-01-06T05:58:19.630Z,99954.87
2018-01-06T06:00:45.617Z,99952.97
2018-01-06T06:03:11.587Z,99966.78
2018-01-06T06:05:37.585Z,99971.16
2018-01-06T06:08:03.553Z,99979.75
2018-01-06T06:10:29.531Z,99983.55
2018-01-06T06:12:55.481Z,99970.58
2018-01-06T06:15:21.436Z,99965.64
2018-01-06T06:17:47.451Z,99973.24
2018-01-06T06:20:13.424Z,99966.55
2018-01-06T06:22:39.417Z,99983.92
2018-01-06T06:25:05.653Z,99990.38
2018-01-06T06:27:32.006Z,99992.29
2018-01-06T06:29:57.998Z,99993.75
2018-01-06T06:32:23.977Z,99988.75
2018-01-06T06:34:49.962Z,99990.23
2018-01-06T06:37:15.940Z,99992.30
2018-01-06T06:39:41.926Z,99992.63
2018-01-06T06:42:07.894Z,99990.22
2018-01-06T06:44:33.850Z,99999.14
2018-01-06T06:46:59.811Z,99989.73
2018-01-06T06:49:25.779Z,99996.89
2018-01-06T06:51:51.766Z,99991.21
2018-01-06T06:54:17.750Z,99994.91
2018-01-06T06:56:43.720Z,99987.97
2018-01-06T06:59:09.699Z,99998.47
2018-01-06T07:01:35.685Z,100003.41
2018-01-06T07:04:01.662Z,99996.93
2018-01-06T07:06:27.651Z,99985.77
2018-01-06T07:08:53.607Z,99991.96
2018-01-06T07:11:19.613Z,99999.13
2018-01-06T07:13:45.601Z,100000.89
2018-01-06T07:16:11.665Z,100006.58
2018-01-06T07:18:37.614Z,100013.30
2018-01-06T07:21:03.576Z,100022.38
2018-01-06T07:23:29.557Z,100018.36
2018-01-06T07:25:55.526Z,100020.91
2018-01-06T07:28:21.511Z,100028.66
2018-01-06T07:30:47.490Z,100029.81
2018-01-06T07:33:13.440Z,100032.11
2018-01-06T07:35:39.413Z,100035.73
2018-01-06T07:38:05.682Z,100035.44
2018-01-06T07:40:31.951Z,100041.81
2018-01-06T07:42:57.937Z,100039.97
2018-01-06T07:45:24.025Z,100049.55
2018-01-06T07:47:50.283Z,100045.99
2018-01-06T07:50:16.468Z,100043.45
2018-01-06T07:52:43.394Z,100050.86
2018-01-06T07:55:09.566Z,100052.12
2018-01-06T07:57:35.659Z,100053.51
2018-01-06T08:00:01.728Z,100061.52
2018-01-06T08:02:27.890Z,100066.30
2018-01-06T08:04:53.902Z,100057.63
2018-01-06T08:07:26.404Z,100066.80
2018-01-06T08:09:55.508Z,100085.11
2018-01-06T08:12:21.619Z,100092.46
2018-01-06T08:14:47.608Z,100094.03
2018-01-06T08:17:13.626Z,100099.81
2018-01-06T08:19:39.602Z,100100.95
2018-01-06T08:22:05.615Z,100102.70
2018-01-06T08:24:31.958Z,100102.78
2018-01-06T08:26:57.944Z,100101.94
2018-01-06T08:29:24.476Z,100100.12
2018-01-06T08:31:50.470Z,100108.06
2018-01-06T08:34:16.423Z,100106.72
2018-01-06T08:36:42.401Z,100101.70
2018-01-06T08:39:08.371Z,100101.52
2018-01-06T08:41:34.336Z,100109.61
2018-01-06T08:44:04.350Z,100114.40
2018-01-06T08:46:30.344Z,100120.69
2018-01-06T08:48:56.321Z,100126.61
2018-01-06T08:51:22.299Z,100131.24
2018-01-06T08:53:48.285Z,100130.89
2018-01-06T08:56:14.318Z,100137.93
2018-01-06T08:58:40.304Z,100138.02
2018-01-06T09:01:06.254Z,100136.20
2018-01-06T09:06:04.664Z,100151.20
2018-01-06T09:08:30.630Z,100150.40
2018-01-06T09:10:56.625Z,100148.22
2018-01-06T09:13:22.586Z,100151.05
2018-01-06T09:15:48.567Z,100150.77
2018-01-06T09:18:14.530Z,100153.61
2018-01-06T09:20:40.506Z,100149.34
2018-01-06T09:23:06.486Z,100151.09
2018-01-06T09:25:32.483Z,100155.58
2018-01-06T09:27:58.462Z,100156.77
2018-01-06T09:30:24.458Z,100153.48
2018-01-06T09:32:50.443Z,100165.06
2018-01-06T09:35:16.401Z,100174.80
2018-01-06T09:37:42.369Z,100176.20
2018-01-06T09:40:08.344Z,100181.74
2018-01-06T09:42:34.330Z,100180.42
2018-01-06T09:45:00.317Z,100189.98
2018-01-06T09:47:26.300Z,100194.05
2018-01-06T09:49:52.310Z,100187.73
2018-01-06T09:52:18.257Z,100181.64
2018-01-06T09:54:44.251Z,100185.25
2018-01-06T09:57:10.250Z,100199.89
2018-01-06T09:59:36.195Z,100198.13
2018-01-06T10:02:03.236Z,100196.59
2018-01-06T10:04:29.183Z,100199.81
2018-01-06T10:06:55.299Z,100202.63
2018-01-06T10:09:21.282Z,100195.38
2018-01-06T10:11:47.259Z,100198.11
2018-01-06T10:14:13.238Z,100198.61
2018-01-06T10:16:39.233Z,100207.27
2018-01-06T10:19:05.193Z,100207.09
2018-01-06T10:21:31.174Z,100211.13
2018-01-06T10:23:57.144Z,100206.66
2018-01-06T10:26:23.131Z,100203.11
2018-01-06T10:28:49.121Z,100209.22
2018-01-06T10:31:15.096Z,100211.36
2018-01-06T10:33:41.091Z,100220.66
2018-01-06T10:36:07.068Z,100225.33
2018-01-06T10:38:33.033Z,100221.88
2018-01-06T10:40:59.048Z,100220.66
2018-01-06T10:43:25.015Z,100222.16
2018-01-06T10:45:50.984Z,100221.16
2018-01-06T10:48:16.960Z,100222.58
2018-01-06T10:50:42.949Z,100224.75
2018-01-06T10:53:08.961Z,100220.37
2018-01-06T10:55:34.917Z,100220.69
2018-01-06T10:58:00.911Z,100229.94
2018-01-06T11:00:32.229Z,100230.80
2018-01-06T11:03:00.307Z,100238.47
2018-01-06T11:07:58.502Z,100230.50
2018-01-06T11:10:24.531Z,100237.61
2018-01-06T11:12:50.517Z,100242.41
2018-01-06T11:15:16.548Z,100238.42
2018-01-06T11:17:42.522Z,100237.17
2018-01-06T11:20:08.525Z,100240.00
2018-01-06T11:32:41.214Z,100243.70
2018-01-06T11:35:07.262Z,100238.95
2018-01-06T11:37:33.239Z,100242.56
2018-01-06T11:39:59.239Z,100238.95
2018-01-06T11:42:25.242Z,100238.66
2018-01-06T11:44:51.226Z,100243.26
2018-01-06T11:47:17.229Z,100242.41
2018-01-06T11:49:43.199Z,100235.49
2018-01-06T11:52:09.195Z,100240.84
2018-01-06T11:54:35.158Z,100242.11
2018-01-06T11:57:01.159Z,100240.68
2018-01-06T11:59:27.136Z,100247.22
2018-01-06T12:01:53.115Z,100251.89
2018-01-06T12:04:19.098Z,100255.62
2018-01-06T12:09:22.490Z,100265.21
2018-01-06T12:11:48.469Z,100263.37
2018-01-06T12:14:14.457Z,100265.44
2018-01-06T12:16:42.543Z,100273.44
2018-01-06T12:19:08.519Z,100270.80
2018-01-06T12:21:34.582Z,100273.59
2018-01-06T12:24:00.612Z,100268.84
2018-01-06T12:26:26.635Z,100266.44
2018-01-06T12:28:52.612Z,100254.89
2018-01-06T12:31:19.632Z,100256.70
2018-01-06T12:33:45.582Z,100254.31
2018-01-06T12:36:11.680Z,100256.45
2018-01-06T12:38:37.643Z,100261.49
2018-01-06T12:41:03.632Z,100256.05
2018-01-06T12:43:29.602Z,100265.36
2018-01-06T12:45:58.039Z,100270.06
2018-01-06T12:48:24.019Z,100270.55
2018-01-06T12:50:50.034Z,100274.83
2018-01-06T12:53:16.445Z,100275.83
2018-01-06T12:55:42.436Z,100278.33
2018-01-06T12:58:08.424Z,100279.25
2018-01-06T13:00:34.936Z,100282.97
2018-01-06T13:03:02.842Z,100275.73
2018-01-06T13:05:31.723Z,100275.16
2018-01-06T13:07:57.808Z,100280.55
2018-01-06T13:10:24.931Z,100281.83
2018-01-06T13:12:51.232Z,100279.77
2018-01-06T13:15:17.211Z,100285.89
2018-01-06T13:17:43.229Z,100288.77
2018-01-06T13:20:09.218Z,100292.09
2018-01-06T13:22:35.206Z,100288.89
2018-01-06T13:25:04.229Z,100288.09
2018-01-06T13:27:32.469Z,100297.67
2018-01-06T13:29:58.948Z,100304.84
2018-01-06T13:32:25.004Z,100304.65
2018-01-06T13:34:51.041Z,100303.94
2018-01-06T13:37:17.027Z,100306.38
2018-01-06T13:39:43.030Z,100310.01
2018-01-06T13:42:09.001Z,100313.47
2018-01-06T13:44:34.990Z,100324.69
2018-01-06T13:47:01.058Z,100329.64
2018-01-06T13:49:27.016Z,100332.76
2018-01-06T13:51:53.022Z,100343.69
2018-01-06T13:56:51.509Z,100343.67
2018-01-06T13:59:17.506Z,100343.32
2018-01-06T14:01:43.647Z,100343.92
2018-01-06T14:04:09.788Z,100349.86
2018-01-06T14:06:35.754Z,100360.05
2018-01-06T14:09:01.768Z,100359.31
2018-01-06T14:11:27.741Z,100357.19
2018-01-06T14:13:53.717Z,100353.45
2018-01-06T14:16:19.664Z,100356.94
2018-01-06T14:18:45.650Z,100365.52
2018-01-06T14:21:11.615Z,100365.58
2018-01-06T14:23:37.590Z,100365.81
2018-01-06T14:26:03.629Z,100368.06
2018-01-06T14:28:29.614Z,100370.48
2018-01-06T14:30:55.593Z,100369.75
2018-01-06T14:33:21.588Z,100377.36
2018-01-06T14:35:47.609Z,100375.25
2018-01-06T14:38:13.566Z,100383.66
2018-01-06T14:40:39.527Z,100378.99
2018-01-06T14:43:05.514Z,100382.13
2018-01-06T14:45:31.506Z,100387.71
2018-01-06T14:47:57.479Z,100376.92
2018-01-06T14:50:23.506Z,100378.16
2018-01-06T14:52:49.585Z,100384.66
2018-01-06T14:55:15.600Z,100388.48
2018-01-06T14:57:41.603Z,100390.94
2018-01-06T15:00:08.594Z,100389.64
2018-01-06T15:02:34.578Z,100389.97
2018-01-06T15:05:00.547Z,100382.59
2018-01-06T15:07:26.570Z,100385.22
2018-01-06T15:09:52.562Z,100387.97
2018-01-06T15:12:18.545Z,100383.31
2018-01-06T15:14:44.514Z,100391.79
2018-01-06T15:22:13.911Z,100412.44
2018-01-06T15:24:39.880Z,100417.16
2018-01-06T15:27:05.955Z,100415.67
2018-01-06T15:29:31.927Z,100421.13
2018-01-06T15:31:57.887Z,100416.05
2018-01-06T15:34:23.875Z,100424.95
2018-01-06T15:36:49.852Z,100424.77
2018-01-06T15:41:50.411Z,100419.25
2018-01-06T15:44:16.431Z,100421.90
2018-01-06T15:46:42.418Z,100426.45
2018-01-06T15:49:08.411Z,100422.52
2018-01-06T15:51:34.476Z,100415.05
2018-01-06T15:54:00.467Z,100424.18
2018-01-06T15:56:26.427Z,100423.27
2018-01-06T15:58:52.420Z,100428.27
2018-01-06T16:01:18.465Z,100426.44
2018-01-06T16:03:44.415Z,100426.41
2018-01-06T16:06:10.383Z,100437.52
2018-01-06T16:08:36.336Z,100445.41
2018-01-06T16:11:02.306Z,100444.41
2018-01-06T16:13:28.394Z,100450.60
2018-01-06T16:15:54.415Z,100448.19
2018-01-06T16:18:20.460Z,100448.89
2018-01-06T16:20:46.461Z,100459.55
2018-01-06T16:23:12.510Z,100469.61
2018-01-06T16:25:38.517Z,100473.93
2018-01-06T16:28:04.520Z,100470.11
2018-01-06T16:30:30.500Z,100478.75
2018-01-06T16:32:56.516Z,100477.89
2018-01-06T16:35:22.535Z,100479.10
2018-01-06T16:37:48.534Z,100485.94
2018-01-06T16:40:14.485Z,100486.85
2018-01-06T16:42:40.486Z,100490.02
2018-01-06T16:45:06.472Z,100492.55
2018-01-06T16:47:32.452Z,100492.84
2018-01-06T16:49:58.455Z,100501.14
2018-01-06T16:52:24.438Z,100496.19
2018-01-06T16:54:50.423Z,100498.37
2018-01-06T16:57:16.373Z,100501.94
2018-01-06T16:59:42.359Z,100509.82
2018-01-06T17:02:08.332Z,100512.46
2018-01-06T17:04:34.347Z,100519.06
2018-01-06T17:07:00.330Z,100524.12
2018-01-06T17:09:26.289Z,100525.12
2018-01-06T17:11:52.258Z,100532.59
2018-01-06T17:14:18.263Z,100534.40
2018-01-06T17:16:44.280Z,100532.49
2018-01-06T17:19:10.321Z,100536.41
2018-01-06T17:21:36.317Z,100530.55
2018-01-06T17:24:02.274Z,100537.22
2018-01-06T17:26:28.231Z,100530.31
2018-01-06T17:28:54.248Z,100526.62
2018-01-06T17:31:20.247Z,100530.52
2018-01-06T17:33:46.268Z,100531.87
2018-01-06T17:36:12.258Z,100538.28
2018-01-06T17:38:38.412Z,100543.38
2018-01-06T17:41:04.422Z,100546.63
2018-01-06T17:43:30.416Z,100559.96
2018-01-06T17:45:56.430Z,100563.14
2018-01-06T17:48:23.112Z,100574.06
2018-01-06T17:50:49.200Z,100580.59
2018-01-06T17:53:15.113Z,100579.45
2018-01-06T17:55:41.067Z,100587.50
2018-01-06T17:58:07.043Z,100586.55
2018-01-06T18:00:32.999Z,100590.88
2018-01-06T18:02:58.997Z,100595.16
2018-01-06T18:05:24.996Z,100600.13
2018-01-06T18:07:51.047Z,100603.81
2018-01-06T18:10:17.310Z,100608.31
2018-01-06T18:12:43.294Z,100611.97
2018-01-06T18:15:09.259Z,100617.79
2018-01-06T18:17:35.230Z,100627.86
2018-01-06T18:20:01.154Z,100634.23
2018-01-06T18:22:27.124Z,100637.79
2018-01-06T18:24:53.094Z,100634.02
2018-01-06T18:27:19.174Z,100641.20
2018-01-06T18:29:45.142Z,100647.22
2018-01-06T18:32:11.187Z,100645.94
2018-01-06T18:34:37.162Z,100655.77
2018-01-06T18:37:03.165Z,100658.63
2018-01-06T18:39:29.151Z,100665.23
2018-01-06T18:41:55.165Z,100667.66
2018-01-06T18:44:21.201Z,100681.14
2018-01-06T18:46:47.222Z,100685.34
2018-01-06T18:49:13.182Z,100680.42
2018-01-06T18:51:40.248Z,100692.13
2018-01-06T18:54:06.359Z,100693.13
2018-01-06T18:59:03.551Z,100696.86
2018-01-06T19:01:29.534Z,100704.52
2018-01-06T19:03:55.527Z,100695.73
2018-01-06T19:06:25.488Z,100706.89
2018-01-06T19:08:53.197Z,100710.22
2018-01-06T19:11:21.579Z,100711.63
2018-01-06T19:13:47.598Z,100717.37
2018-01-06T19:16:13.608Z,100716.78
2018-01-06T19:18:39.563Z,100725.23
2018-01-06T19:21:05.554Z,100732.06
2018-01-06T19:23:31.563Z,100730.42
2018-01-06T19:25:58.011Z,100729.38
2018-01-06T19:28:24.072Z,100728.47
2018-01-06T19:30:50.039Z,100734.06
2018-01-06T19:33:16.016Z,100739.11
2018-01-06T19:35:42.018Z,100744.99
2018-01-06T19:38:07.991Z,100743.55
2018-01-06T19:40:33.967Z,100745.33
2018-01-06T19:43:00.002Z,100759.19
2018-01-06T19:45:25.976Z,100754.12
2018-01-06T19:47:51.988Z,100754.20
2018-01-06T19:50:17.956Z,100753.43
2018-01-06T19:52:43.920Z,100761.42
2018-01-06T19:55:10.311Z,100763.66
2018-01-06T19:57:36.313Z,100776.00
2018-01-06T20:00:02.300Z,100773.16
2018-01-06T20:02:28.326Z,100775.05
2018-01-06T20:04:54.315Z,100784.73
2018-01-06T20:07:20.430Z,100786.45
2018-01-06T20:09:46.420Z,100783.38
2018-01-06T20:12:12.442Z,100789.30
2018-01-06T20:14:38.425Z,100794.59
2018-01-06T20:17:04.399Z,100794.36
2018-01-06T20:19:30.393Z,100797.62
2018-01-06T20:21:56.360Z,100803.66
2018-01-06T20:24:22.353Z,100811.52
2018-01-06T20:26:48.344Z,100813.25
2018-01-06T20:29:15.057Z,100816.47
2018-01-06T20:31:41.056Z,100817.08
2018-01-06T20:34:14.399Z,100817.33
2018-01-06T20:36:40.616Z,100820.02
2018-01-06T20:39:06.598Z,100828.09
2018-01-06T20:41:32.644Z,100828.03
2018-01-06T20:43:59.071Z,100832.70
2018-01-06T20:46:25.350Z,100838.81
2018-01-06T20:48:51.529Z,100843.47
2018-01-06T20:51:17.756Z,100846.25
2018-01-06T20:53:45.024Z,100859.41
2018-01-06T20:56:11.146Z,100854.09
2018-01-06T20:58:37.454Z,100863.01
2018-01-06T21:01:03.450Z,100860.75
2018-01-06T21:03:29.573Z,100869.17
2018-01-06T21:05:55.579Z,100868.92
2018-01-06T21:08:21.731Z,100869.50
2018-01-06T21:10:47.751Z,100877.59
2018-01-06T21:13:13.764Z,100874.89
2018-01-06T21:15:39.787Z,100877.77
2018-01-06T21:18:05.806Z,100879.05
2018-01-06T21:20:31.952Z,100879.38
2018-01-06T21:22:58.199Z,100881.42
2018-01-06T21:25:24.652Z,100879.74
2018-01-06T21:27:51.146Z,100884.01
2018-01-06T21:30:17.374Z,100886.27
2018-01-06T21:32:44.566Z,100888.36
2018-01-06T21:35:10.820Z,100892.13
2018-01-06T21:37:37.990Z,100893.70
2018-01-06T21:40:04.034Z,100901.90
2018-01-06T21:42:30.045Z,100904.48
2018-01-06T21:44:56.317Z,100905.28
2018-01-06T21:47:22.658Z,100913.50
2018-01-06T21:49:49.723Z,100915.23
2018-01-06T21:52:15.879Z,100918.68
2018-01-06T21:54:44.197Z,100920.69
2018-01-06T21:57:10.512Z,100922.09
2018-01-06T21:59:37.395Z,100930.22
2018-01-06T22:02:03.391Z,100934.73
2018-01-06T22:04:29.493Z,100937.38
2018-01-06T22:06:55.901Z,100947.39
2018-01-06T22:09:23.746Z,100951.02
2018-01-06T22:11:50.387Z,100955.19
2018-01-06T22:14:17.613Z,100959.94
2018-01-06T22:16:43.743Z,100961.63
2018-01-06T22:19:10.023Z,100960.52
2018-01-06T22:21:36.126Z,100958.95
2018-01-06T22:24:02.742Z,100959.48
2018-01-06T22:26:29.025Z,100961.12
2018-01-06T22:28:55.317Z,100969.55
2018-01-06T22:31:22.226Z,100971.58
2018-01-06T22:33:49.122Z,100980.84
2018-01-06T22:36:15.302Z,100988.09
2018-01-06T22:38:41.635Z,100986.06
2018-01-06T22:41:07.919Z,100992.14
2018-01-06T22:43:35.833Z,100984.11
2018-01-06T22:46:01.895Z,100992.95
2018-01-06T22:48:28.206Z,100993.56
2018-01-06T22:50:54.293Z,100993.08
2018-01-06T22:53:20.422Z,100997.44
2018-01-06T22:55:46.387Z,100996.73
2018-01-06T22:58:12.462Z,100999.72
2018-01-06T23:00:38.461Z,101008.22
2018-01-06T23:03:04.451Z,101006.45
2018-01-06T23:05:30.445Z,101013.69
2018-01-06T23:07:56.439Z,101018.81
2018-01-06T23:10:22.417Z,101018.70
2018-01-06T23:12:48.401Z,101026.39
2018-01-06T23:15:14.358Z,101031.97
2018-01-06T23:17:40.321Z,101028.31
2018-01-06T23:20:06.270Z,101033.11
2018-01-06T23:22:32.235Z,101027.70
2018-01-06T23:24:58.225Z,101030.48
2018-01-06T23:27:24.198Z,101035.77
2018-01-06T23:29:50.170Z,101040.44
2018-01-06T23:32:16.163Z,101034.66
2018-01-06T23:34:42.165Z,101033.41
2018-01-06T23:37:08.149Z,101040.64
2018-01-06T23:39:34.131Z,101046.09
2018-01-06T23:42:00.122Z,101042.05
2018-01-06T23:44:26.187Z,101048.95
2018-01-06T23:46:52.250Z,101050.73
2018-01-06T23:49:18.246Z,101048.95
2018-01-06T23:51:44.248Z,101051.91
2018-01-06T23:54:10.231Z,101049.67
2018-01-06T23:56:36.223Z,101052.41
2018-01-06T23:59:02.212Z,101062.97
